createdAt,value
2022-07-29T00:02:51.351Z,59.53
2022-07-29T00:07:54.509Z,60.08
2022-07-29T00:12:57.740Z,60.64
2022-07-29T00:18:03.224Z,61.14
2022-07-29T00:23:06.106Z,61.42
2022-07-29T00:28:08.950Z,61.77
2022-07-29T00:33:11.724Z,62.12
2022-07-29T00:38:16.808Z,65.17
2022-07-29T00:43:19.600Z,65.56
2022-07-29T00:48:22.429Z,56.12
2022-07-29T00:53:26.776Z,53.68
2022-07-29T00:58:30.585Z,55.15
2022-07-29T01:03:33.417Z,56.23
2022-07-29T01:08:37.118Z,56.94
2022-07-29T01:13:40.089Z,57.74
2022-07-29T01:18:47.031Z,58.53
2022-07-29T01:24:27.485Z,59.17
2022-07-29T01:29:36.102Z,59.68
2022-07-29T01:35:00.104Z,60.48
2022-07-29T01:40:05.690Z,60.99
2022-07-29T01:45:29.976Z,61.00
2022-07-29T01:50:39.464Z,61.56
2022-07-29T01:55:45.704Z,62.06
2022-07-29T02:00:49.754Z,62.08
2022-07-29T02:05:54.076Z,63.38
2022-07-29T02:10:57.800Z,66.88
2022-07-29T02:16:02.259Z,57.46
2022-07-29T02:21:05.614Z,53.81
2022-07-29T02:26:19.208Z,54.80
2022-07-29T02:31:25.605Z,56.15
2022-07-29T02:36:29.802Z,57.12
2022-07-29T02:42:07.688Z,58.40
2022-07-29T02:47:10.431Z,59.39
2022-07-29T02:52:37.866Z,59.80
2022-07-29T02:57:55.512Z,60.07
2022-07-29T03:03:01.294Z,61.04
2022-07-29T03:08:07.011Z,61.57
2022-07-29T03:13:10.625Z,61.96
2022-07-29T03:18:14.112Z,64.33
2022-07-29T03:23:22.126Z,66.82
2022-07-29T03:28:26.967Z,57.94
2022-07-29T03:33:31.503Z,54.52
2022-07-29T03:38:36.659Z,56.02
2022-07-29T03:43:49.531Z,57.13
2022-07-29T03:48:57.659Z,57.94
2022-07-29T03:54:02.156Z,58.97
2022-07-29T03:59:07.212Z,60.15
2022-07-29T04:04:10.101Z,61.12
2022-07-29T04:09:13.123Z,61.94
2022-07-29T04:14:16.177Z,61.95
2022-07-29T04:19:19.247Z,61.68
2022-07-29T04:24:22.063Z,62.27
2022-07-29T04:29:24.876Z,67.18
2022-07-29T04:34:28.013Z,61.27
2022-07-29T04:39:31.302Z,54.46
2022-07-29T04:44:34.129Z,52.15
2022-07-29T04:49:42.497Z,48.60
2022-07-29T04:54:45.361Z,43.91
2022-07-29T04:59:48.178Z,41.78
2022-07-29T05:04:51.048Z,40.22
2022-07-29T05:09:54.248Z,37.81
2022-07-29T05:14:57.063Z,37.47
2022-07-29T05:19:59.853Z,37.84
2022-07-29T05:25:08.867Z,38.95
2022-07-29T05:30:12.387Z,40.77
2022-07-29T05:35:15.993Z,42.67
2022-07-29T05:40:19.013Z,44.27
2022-07-29T05:45:21.896Z,45.12
2022-07-29T05:50:25.693Z,46.54
2022-07-29T05:55:28.579Z,47.27
2022-07-29T06:00:31.501Z,47.70
2022-07-29T06:05:34.382Z,48.83
2022-07-29T06:10:37.286Z,49.21
2022-07-29T06:15:40.251Z,49.94
2022-07-29T06:20:43.268Z,50.66
2022-07-29T06:25:47.298Z,50.91
2022-07-29T06:30:50.140Z,51.99
2022-07-29T06:35:55.170Z,51.92
2022-07-29T06:41:01.080Z,52.69
2022-07-29T06:46:06.370Z,52.56
2022-07-29T06:51:10.305Z,52.50
2022-07-29T06:56:15.096Z,52.36
2022-07-29T07:01:18.084Z,52.61
2022-07-29T07:06:20.962Z,52.84
2022-07-29T07:11:23.815Z,52.48
2022-07-29T07:16:26.873Z,52.14
2022-07-29T07:21:31.072Z,51.52
2022-07-29T07:26:34.189Z,52.03
2022-07-29T07:31:38.199Z,52.19
2022-07-29T07:36:41.165Z,51.99
2022-07-29T07:41:47.202Z,51.28
2022-07-29T07:46:50.816Z,51.39
2022-07-29T07:51:53.719Z,50.55
2022-07-29T07:56:56.531Z,50.38
2022-07-29T08:01:59.518Z,50.25
2022-07-29T08:07:03.076Z,49.80
2022-07-29T08:12:07.022Z,49.40
2022-07-29T08:17:09.881Z,49.10
2022-07-29T08:22:12.707Z,48.97
2022-07-29T08:27:40.780Z,48.64
2022-07-29T08:32:55.294Z,48.83
2022-07-29T08:37:59.814Z,48.19
2022-07-29T08:43:09.405Z,47.12
2022-07-29T08:48:20.312Z,47.24
2022-07-29T08:53:25.266Z,47.14
2022-07-29T08:58:31.516Z,47.07
2022-07-29T09:03:37.212Z,46.79
2022-07-29T09:08:40.246Z,46.32
2022-07-29T09:13:43.156Z,46.51
2022-07-29T09:18:46.975Z,46.32
2022-07-29T09:24:22.312Z,45.84
2022-07-29T09:29:26.015Z,45.95
2022-07-29T09:34:32.840Z,46.12
2022-07-29T09:39:39.091Z,45.79
2022-07-29T09:44:50.406Z,45.45
2022-07-29T09:50:00.763Z,45.13
2022-07-29T09:55:13.634Z,45.05
2022-07-29T10:00:24.211Z,45.16
2022-07-29T10:05:36.242Z,44.79
2022-07-29T10:10:42.742Z,44.77
2022-07-29T10:15:47.521Z,44.21
2022-07-29T10:20:50.804Z,43.91
2022-07-29T10:25:54.086Z,43.78
2022-07-29T10:31:03.076Z,43.67
2022-07-29T10:36:18.638Z,43.65
2022-07-29T10:41:27.369Z,43.95
2022-07-29T10:46:40.216Z,44.28
2022-07-29T10:51:57.823Z,44.07
2022-07-29T10:57:53.101Z,44.03
2022-07-29T11:02:53.195Z,43.41
2022-07-29T11:08:19.907Z,43.38
2022-07-29T11:13:49.295Z,43.25
2022-07-29T11:19:24.732Z,43.54
2022-07-29T11:24:35.195Z,43.50
2022-07-29T11:29:53.661Z,43.58
2022-07-29T11:35:16.769Z,43.45
2022-07-29T11:40:21.404Z,43.34
2022-07-29T11:45:42.624Z,43.22
2022-07-29T11:50:51.690Z,43.75
2022-07-29T12:01:20.514Z,43.22
2022-07-29T12:06:23.360Z,42.47
2022-07-29T12:11:26.233Z,42.69
2022-07-29T12:16:38.797Z,42.69
2022-07-29T12:21:56.768Z,42.26
2022-07-29T12:27:00.969Z,42.18
2022-07-29T12:32:14.620Z,42.78
2022-07-29T12:37:40.524Z,42.72
2022-07-29T12:43:08.535Z,42.19
2022-07-29T12:48:11.956Z,42.44
2022-07-29T12:53:14.899Z,42.75
2022-07-29T12:58:34.233Z,41.90
2022-07-29T13:03:59.824Z,41.75
2022-07-29T13:09:10.976Z,42.62
2022-07-29T13:14:35.263Z,42.54
2022-07-29T13:19:42.173Z,42.28
2022-07-29T13:24:57.029Z,41.86
2022-07-29T13:30:01.884Z,42.65
2022-07-29T13:35:07.326Z,42.45
2022-07-29T13:40:13.515Z,42.43
2022-07-29T13:45:16.326Z,42.15
2022-07-29T13:50:19.109Z,42.25
2022-07-29T13:55:22.050Z,42.79
2022-07-29T14:00:28.797Z,42.74
2022-07-29T14:05:31.673Z,43.07
2022-07-29T14:10:34.585Z,43.31
2022-07-29T14:15:39.385Z,42.92
2022-07-29T14:20:42.455Z,43.56
2022-07-29T14:25:45.275Z,43.90
2022-07-29T14:30:51.657Z,44.01
2022-07-29T14:35:54.582Z,43.59
2022-07-29T14:41:04.151Z,43.40
2022-07-29T14:46:08.650Z,43.20
2022-07-29T14:51:11.679Z,43.15
2022-07-29T14:56:35.307Z,43.30
2022-07-29T15:01:37.400Z,42.82
2022-07-29T15:06:40.207Z,42.68
2022-07-29T15:11:43.055Z,42.59
2022-07-29T15:16:47.992Z,42.69
2022-07-29T15:21:51.352Z,42.66
2022-07-29T15:26:54.165Z,42.67
2022-07-29T15:31:57.337Z,42.95
2022-07-29T15:37:01.913Z,43.14
2022-07-29T15:42:05.241Z,43.11
2022-07-29T15:47:08.069Z,43.29
2022-07-29T15:52:11.130Z,43.47
2022-07-29T15:57:20.978Z,43.62
2022-07-29T16:02:24.102Z,44.08
2022-07-29T16:07:31.480Z,44.13
2022-07-29T16:12:35.751Z,44.12
2022-07-29T16:17:42.875Z,44.22
2022-07-29T16:22:47.062Z,44.33
2022-07-29T16:28:00.639Z,44.39
2022-07-29T16:33:08.486Z,44.61
2022-07-29T16:38:11.588Z,44.84
2022-07-29T16:43:15.406Z,45.05
2022-07-29T16:48:18.812Z,45.22
2022-07-29T16:53:22.256Z,45.45
2022-07-29T16:58:25.303Z,45.55
2022-07-29T17:03:28.320Z,45.71
2022-07-29T17:08:31.151Z,46.00
2022-07-29T17:13:33.967Z,46.02
2022-07-29T17:18:36.766Z,46.20
2022-07-29T17:23:39.626Z,46.44
2022-07-29T17:28:42.713Z,46.62
2022-07-29T17:33:45.608Z,46.77
2022-07-29T17:38:48.927Z,46.86
2022-07-29T17:43:52.542Z,47.03
2022-07-29T17:48:56.559Z,47.24
2022-07-29T17:54:01.903Z,47.38
2022-07-29T17:59:06.870Z,47.47
2022-07-29T18:04:09.858Z,47.52
2022-07-29T18:09:12.651Z,47.67
2022-07-29T18:14:15.509Z,47.77
2022-07-29T18:19:18.458Z,47.96
2022-07-29T18:25:10.086Z,48.56
2022-07-29T18:30:15.239Z,48.68
2022-07-29T18:35:21.372Z,48.90
2022-07-29T18:40:25.938Z,49.31
2022-07-29T18:45:29.088Z,49.63
2022-07-29T18:50:32.575Z,49.73
2022-07-29T18:55:35.693Z,49.93
2022-07-29T19:00:39.150Z,50.22
2022-07-29T19:05:42.249Z,50.32
2022-07-29T19:10:45.218Z,50.71
2022-07-29T19:15:48.162Z,50.88
2022-07-29T19:20:51.195Z,50.91
2022-07-29T19:25:54.261Z,51.42
2022-07-29T19:30:57.485Z,51.11
2022-07-29T19:36:02.235Z,51.44
2022-07-29T19:41:06.451Z,51.87
2022-07-29T19:46:09.547Z,51.88
2022-07-29T19:51:12.576Z,52.14
2022-07-29T19:56:15.384Z,52.48
2022-07-29T20:01:18.531Z,52.41
2022-07-29T20:06:22.794Z,52.60
2022-07-29T20:11:29.321Z,52.62
2022-07-29T20:16:35.778Z,52.31
2022-07-29T20:21:38.775Z,52.40
2022-07-29T20:26:41.659Z,52.56
2022-07-29T20:31:45.797Z,52.60
2022-07-29T20:36:56.599Z,52.76
2022-07-29T20:42:01.277Z,52.92
2022-07-29T20:47:04.314Z,52.93
2022-07-29T20:52:08.309Z,52.91
2022-07-29T20:57:11.369Z,53.07
2022-07-29T21:02:14.373Z,53.06
2022-07-29T21:07:17.276Z,53.14
2022-07-29T21:12:20.427Z,52.94
2022-07-29T21:17:23.913Z,53.09
2022-07-29T21:22:26.902Z,53.43
2022-07-29T21:27:48.411Z,53.29
2022-07-29T21:32:51.512Z,53.21
2022-07-29T21:37:55.010Z,53.40
2022-07-29T21:42:58.890Z,53.50
2022-07-29T21:48:02.633Z,53.40
2022-07-29T21:53:08.239Z,53.59
2022-07-29T21:58:17.652Z,53.71
2022-07-29T22:03:20.649Z,53.70
2022-07-29T22:08:23.516Z,53.68
2022-07-29T22:13:26.855Z,53.91
2022-07-29T22:18:29.851Z,53.81
2022-07-29T22:23:33.043Z,53.83
2022-07-29T22:28:36.097Z,53.99
2022-07-29T22:33:38.997Z,54.48
2022-07-29T22:38:42.063Z,54.83
2022-07-29T22:43:45.051Z,55.82
2022-07-29T22:48:47.930Z,57.20
2022-07-29T22:53:51.398Z,57.46
2022-07-29T22:58:57.126Z,57.68
2022-07-29T23:04:00.192Z,57.92
2022-07-29T23:09:04.154Z,58.43
2022-07-29T23:14:07.181Z,59.04
2022-07-29T23:19:12.727Z,59.59
2022-07-29T23:24:15.511Z,59.86
2022-07-29T23:29:18.583Z,59.92
2022-07-29T23:34:21.734Z,60.48
2022-07-29T23:39:24.748Z,62.66
2022-07-29T23:44:27.822Z,65.66
2022-07-29T23:49:30.889Z,61.58
2022-07-29T23:54:33.975Z,56.15
2022-07-29T23:59:40.080Z,54.33
